createdAt,value
2022-08-19T00:00:23.736Z,32.50
2022-08-19T00:03:10.991Z,30.62
2022-08-19T00:05:58.263Z,28.55
2022-08-19T00:08:46.101Z,31.12
2022-08-19T00:11:34.148Z,28.00
2022-08-19T00:14:22.846Z,26.60
2022-08-19T00:17:11.011Z,26.33
2022-08-19T00:19:58.656Z,26.42
2022-08-19T00:22:48.220Z,27.02
2022-08-19T00:25:37.267Z,28.45
2022-08-19T00:28:24.778Z,28.02
2022-08-19T00:31:12.110Z,24.37
2022-08-19T00:34:00.042Z,24.15
2022-08-19T00:36:48.745Z,29.40
2022-08-19T00:39:36.073Z,24.63
2022-08-19T00:42:24.074Z,24.43
2022-08-19T00:45:15.116Z,24.95
2022-08-19T00:48:04.565Z,23.42
2022-08-19T00:50:54.042Z,26.00
2022-08-19T00:53:41.560Z,21.77
2022-08-19T00:56:29.705Z,25.27
2022-08-19T00:59:53.402Z,21.70
2022-08-19T01:02:07.588Z,24.72
2022-08-19T01:04:55.126Z,20.55
2022-08-19T01:07:42.994Z,21.07
2022-08-19T01:10:36.631Z,21.00
2022-08-19T01:13:25.429Z,18.80
2022-08-19T01:16:13.912Z,23.77
2022-08-19T01:19:02.232Z,20.45
2022-08-19T01:22:01.350Z,21.80
2022-08-19T01:24:50.477Z,18.70
2022-08-19T01:27:42.187Z,19.27
2022-08-19T01:30:34.535Z,23.10
2022-08-19T01:33:22.349Z,20.30
2022-08-19T01:36:19.002Z,19.25
2022-08-19T01:39:09.905Z,19.55
2022-08-19T01:41:57.476Z,20.77
2022-08-19T01:44:44.962Z,21.97
2022-08-19T01:47:32.307Z,19.48
2022-08-19T01:50:19.832Z,19.95
2022-08-19T01:53:11.495Z,21.20
2022-08-19T01:55:59.479Z,21.30
2022-08-19T01:58:55.379Z,20.35
2022-08-19T02:01:42.994Z,21.40
2022-08-19T02:04:30.342Z,22.15
2022-08-19T02:07:19.445Z,19.65
2022-08-19T02:10:12.353Z,18.35
2022-08-19T02:12:58.345Z,18.42
2022-08-19T02:15:45.647Z,18.48
2022-08-19T02:18:34.591Z,20.50
2022-08-19T02:21:23.734Z,19.65
2022-08-19T02:24:13.096Z,19.40
2022-08-19T02:27:00.890Z,17.05
2022-08-19T02:29:49.768Z,18.30
2022-08-19T02:32:37.281Z,18.92
2022-08-19T02:35:27.174Z,21.17
2022-08-19T02:38:27.648Z,21.20
2022-08-19T02:41:21.403Z,20.25
2022-08-19T02:44:30.112Z,17.67
2022-08-19T02:46:59.136Z,15.03
2022-08-19T02:49:49.332Z,18.32
2022-08-19T02:52:37.035Z,17.32
2022-08-19T02:55:24.368Z,13.75
2022-08-19T02:58:12.084Z,17.25
2022-08-19T03:00:59.867Z,16.02
2022-08-19T03:03:48.563Z,15.05
2022-08-19T03:06:39.391Z,19.67
2022-08-19T03:09:26.731Z,14.13
2022-08-19T03:12:14.257Z,17.05
2022-08-19T03:15:01.721Z,16.87
2022-08-19T03:17:49.388Z,14.98
2022-08-19T03:20:45.828Z,18.42
2022-08-19T03:23:33.144Z,12.93
2022-08-19T03:26:20.720Z,13.80
2022-08-19T03:29:09.588Z,15.03
2022-08-19T03:31:59.585Z,14.00
2022-08-19T03:34:46.877Z,13.43
2022-08-19T03:37:35.876Z,14.18
2022-08-19T03:40:23.465Z,13.43
2022-08-19T03:43:10.933Z,14.00
2022-08-19T03:46:11.456Z,15.70
2022-08-19T03:49:00.739Z,13.08
2022-08-19T03:51:51.174Z,13.38
2022-08-19T03:54:40.084Z,11.35
2022-08-19T03:57:32.201Z,12.78
2022-08-19T04:00:17.500Z,14.98
2022-08-19T04:03:04.812Z,15.05
2022-08-19T04:05:52.478Z,11.63
2022-08-19T04:08:41.292Z,15.98
2022-08-19T04:11:43.389Z,14.00
2022-08-19T04:14:24.012Z,14.38
2022-08-19T04:17:13.055Z,13.38
2022-08-19T04:20:01.297Z,19.85
2022-08-19T04:22:49.926Z,13.00
2022-08-19T04:25:43.332Z,15.08
2022-08-19T04:28:30.827Z,14.98
2022-08-19T04:31:22.215Z,13.50
2022-08-19T04:34:12.725Z,12.70
2022-08-19T04:37:00.817Z,13.18
2022-08-19T04:40:06.587Z,16.30
2022-08-19T04:42:55.210Z,15.20
2022-08-19T04:45:43.965Z,14.70
2022-08-19T04:48:31.949Z,16.10
2022-08-19T04:51:21.539Z,14.78
2022-08-19T04:54:09.478Z,14.58
2022-08-19T04:56:56.959Z,20.55
2022-08-19T04:59:44.282Z,12.53
2022-08-19T05:02:31.661Z,13.35
2022-08-19T05:05:19.075Z,12.03
2022-08-19T05:08:07.988Z,11.30
2022-08-19T05:10:55.378Z,13.45
2022-08-19T05:13:44.270Z,13.20
2022-08-19T05:16:31.885Z,12.00
2022-08-19T05:19:37.160Z,9.43
2022-08-19T05:22:35.576Z,13.90
2022-08-19T05:25:25.621Z,9.43
2022-08-19T05:28:13.159Z,10.98
2022-08-19T05:31:00.767Z,10.70
2022-08-19T05:33:47.929Z,9.38
2022-08-19T05:36:40.144Z,8.88
2022-08-19T05:39:30.412Z,9.05
2022-08-19T05:42:17.865Z,9.45
2022-08-19T05:45:05.889Z,10.03
2022-08-19T05:47:53.226Z,11.75
2022-08-19T05:50:42.486Z,7.20
2022-08-19T05:53:29.732Z,7.78
2022-08-19T05:56:19.247Z,9.30
2022-08-19T05:59:12.456Z,11.65
2022-08-19T06:02:01.571Z,9.03
2022-08-19T06:04:49.040Z,11.12
2022-08-19T06:07:37.934Z,7.53
2022-08-19T06:10:25.280Z,10.53
2022-08-19T06:13:12.472Z,8.50
2022-08-19T06:15:59.725Z,7.30
2022-08-19T06:18:47.453Z,6.65
2022-08-19T06:21:36.881Z,7.37
2022-08-19T06:24:27.357Z,9.05
2022-08-19T06:27:15.000Z,6.33
2022-08-19T06:30:03.175Z,8.40
2022-08-19T06:32:50.981Z,6.37
2022-08-19T06:38:30.820Z,7.33
2022-08-19T06:41:18.391Z,4.85
2022-08-19T06:44:06.128Z,6.12
2022-08-19T06:46:55.055Z,5.87
2022-08-19T06:49:43.236Z,7.60
2022-08-19T06:52:38.414Z,10.25
2022-08-19T06:55:26.081Z,7.35
2022-08-19T06:58:13.562Z,8.78
2022-08-19T07:01:05.752Z,6.92
2022-08-19T07:03:52.477Z,8.58
2022-08-19T07:06:44.151Z,7.10
2022-08-19T07:09:29.399Z,6.83
2022-08-19T07:12:18.108Z,9.10
2022-08-19T07:15:10.292Z,6.17
2022-08-19T07:17:57.943Z,7.28
2022-08-19T07:20:45.577Z,10.18
2022-08-19T07:23:33.444Z,6.75
2022-08-19T07:26:28.015Z,6.97
2022-08-19T07:29:13.698Z,7.97
2022-08-19T07:32:03.008Z,6.37
2022-08-19T07:34:50.770Z,8.13
2022-08-19T07:37:40.100Z,9.05
2022-08-19T07:40:27.378Z,8.98
2022-08-19T07:43:17.960Z,6.83
2022-08-19T07:46:05.095Z,6.95
2022-08-19T07:48:53.640Z,7.50
2022-08-19T07:51:41.104Z,7.70
2022-08-19T07:54:31.292Z,6.70
2022-08-19T07:57:19.947Z,9.20
2022-08-19T08:00:08.280Z,7.75
2022-08-19T08:02:56.241Z,6.87
2022-08-19T08:06:02.438Z,7.85
2022-08-19T08:08:51.307Z,10.08
2022-08-19T08:11:50.681Z,8.60
2022-08-19T08:14:44.141Z,7.22
2022-08-19T08:17:48.550Z,8.78
2022-08-19T08:20:21.899Z,9.45
2022-08-19T08:23:25.926Z,11.63
2022-08-19T08:26:14.923Z,9.65
2022-08-19T08:29:12.276Z,8.83
2022-08-19T08:31:58.504Z,8.23
2022-08-19T08:34:42.309Z,9.90
2022-08-19T08:37:29.819Z,9.43
2022-08-19T08:40:32.141Z,14.47
2022-08-19T08:43:37.435Z,8.78
2022-08-19T08:46:31.316Z,8.18
2022-08-19T08:49:31.816Z,7.67
2022-08-19T08:52:32.069Z,8.30
2022-08-19T08:55:23.563Z,8.65
2022-08-19T08:58:15.473Z,11.78
2022-08-19T09:01:02.631Z,7.83
2022-08-19T09:03:49.922Z,7.67
2022-08-19T09:06:53.633Z,10.88
2022-08-19T09:09:44.243Z,8.28
2022-08-19T09:12:57.085Z,9.50
2022-08-19T09:15:51.051Z,9.75
2022-08-19T09:18:48.004Z,7.35
2022-08-19T09:21:36.060Z,11.30
2022-08-19T09:24:23.483Z,8.33
2022-08-19T09:27:18.730Z,11.15
2022-08-19T09:30:01.139Z,8.95
2022-08-19T09:32:52.827Z,8.53
2022-08-19T09:35:50.004Z,9.43
2022-08-19T09:38:26.924Z,9.13
2022-08-19T09:41:17.085Z,12.58
2022-08-19T09:44:05.524Z,8.38
2022-08-19T09:46:53.360Z,7.83
2022-08-19T09:49:42.035Z,13.68
2022-08-19T09:52:32.474Z,10.05
2022-08-19T09:55:18.624Z,8.33
2022-08-19T09:58:06.176Z,11.55
2022-08-19T10:00:54.525Z,8.23
2022-08-19T10:03:41.778Z,8.95
2022-08-19T10:06:38.236Z,11.53
2022-08-19T10:09:33.786Z,11.53
2022-08-19T10:12:11.574Z,12.37
2022-08-19T10:14:59.146Z,12.18
2022-08-19T10:17:48.266Z,9.40
2022-08-19T10:20:36.732Z,12.78
2022-08-19T10:23:25.707Z,10.93
2022-08-19T10:26:15.935Z,11.93
2022-08-19T10:29:03.924Z,13.05
2022-08-19T10:31:59.775Z,10.55
2022-08-19T10:34:48.638Z,12.03
2022-08-19T10:37:31.651Z,11.83
2022-08-19T10:40:20.033Z,12.73
2022-08-19T10:43:07.330Z,13.18
2022-08-19T10:45:57.723Z,10.80
2022-08-19T10:48:45.924Z,10.58
2022-08-19T10:51:52.278Z,12.18
2022-08-19T10:54:58.247Z,12.18
2022-08-19T10:58:01.665Z,10.05
2022-08-19T11:00:36.257Z,8.83
2022-08-19T11:03:26.175Z,12.10
2022-08-19T11:06:13.826Z,14.33
2022-08-19T11:09:01.216Z,10.00
2022-08-19T11:11:48.997Z,10.72
2022-08-19T11:14:36.610Z,12.70
2022-08-19T11:17:24.422Z,13.60
2022-08-19T11:20:14.670Z,13.48
2022-08-19T11:23:01.836Z,13.13
2022-08-19T11:25:51.960Z,12.80
2022-08-19T11:28:39.687Z,17.32
2022-08-19T11:31:29.856Z,14.83
2022-08-19T11:34:20.277Z,13.22
2022-08-19T11:37:09.463Z,13.85
2022-08-19T11:39:56.780Z,14.28
2022-08-19T11:42:57.227Z,10.85
2022-08-19T11:45:44.919Z,13.80
2022-08-19T11:48:32.209Z,10.30
2022-08-19T11:51:23.104Z,15.75
2022-08-19T11:54:11.050Z,12.75
2022-08-19T11:56:58.606Z,9.35
2022-08-19T11:59:51.580Z,10.00
2022-08-19T12:02:39.055Z,10.82
2022-08-19T12:05:26.687Z,8.78
2022-08-19T12:08:14.873Z,8.48
2022-08-19T12:11:02.327Z,10.98
2022-08-19T12:13:49.570Z,10.88
2022-08-19T12:16:42.256Z,11.08
2022-08-19T12:19:26.410Z,10.38
2022-08-19T12:22:13.790Z,8.90
2022-08-19T12:25:01.864Z,10.05
2022-08-19T12:27:57.243Z,11.35
2022-08-19T12:30:40.406Z,8.68
2022-08-19T12:33:29.319Z,9.63
2022-08-19T12:36:18.706Z,8.95
2022-08-19T12:39:07.508Z,7.87
2022-08-19T12:41:56.390Z,8.48
2022-08-19T12:44:45.693Z,7.97
2022-08-19T12:47:33.185Z,9.73
2022-08-19T12:50:22.294Z,7.35
2022-08-19T12:53:09.735Z,8.35
2022-08-19T12:56:21.158Z,7.22
2022-08-19T12:59:09.098Z,9.30
2022-08-19T13:01:56.424Z,7.17
2022-08-19T13:04:44.057Z,7.78
2022-08-19T13:07:33.251Z,6.22
2022-08-19T13:10:22.685Z,5.80
2022-08-19T13:13:12.271Z,6.83
2022-08-19T13:16:04.174Z,9.35
2022-08-19T13:18:54.876Z,9.78
2022-08-19T13:21:42.558Z,6.08
2022-08-19T13:24:33.543Z,7.72
2022-08-19T13:27:18.503Z,6.95
2022-08-19T13:30:25.288Z,6.45
2022-08-19T13:36:01.822Z,4.90
2022-08-19T13:38:50.666Z,4.62
2022-08-19T13:41:39.203Z,8.18
2022-08-19T13:44:27.329Z,5.42
2022-08-19T13:47:15.557Z,7.45
2022-08-19T13:50:05.349Z,9.43
2022-08-19T13:52:53.329Z,6.75
2022-08-19T13:55:43.870Z,5.30
2022-08-19T13:58:32.479Z,7.28
2022-08-19T14:01:24.875Z,7.08
2022-08-19T14:04:12.511Z,6.10
2022-08-19T14:07:00.259Z,6.58
2022-08-19T14:09:49.206Z,5.67
2022-08-19T14:12:36.801Z,4.75
2022-08-19T14:15:24.762Z,7.35
2022-08-19T14:18:14.337Z,4.58
2022-08-19T14:21:01.640Z,6.20
2022-08-19T14:23:49.440Z,4.95
2022-08-19T14:26:36.694Z,4.58
2022-08-19T14:29:24.268Z,7.95
2022-08-19T14:32:16.915Z,6.75
2022-08-19T14:35:03.422Z,5.30
2022-08-19T14:37:53.845Z,5.30
2022-08-19T14:40:41.614Z,4.53
2022-08-19T14:43:29.273Z,5.17
2022-08-19T14:46:20.366Z,8.38
2022-08-19T14:49:09.276Z,5.15
2022-08-19T14:51:57.501Z,4.40
2022-08-19T14:54:45.233Z,7.03
2022-08-19T14:57:32.374Z,4.25
2022-08-19T15:00:19.573Z,5.35
2022-08-19T15:03:07.061Z,4.30
2022-08-19T15:05:54.292Z,4.78
2022-08-19T15:08:44.038Z,5.87
2022-08-19T15:11:33.356Z,6.28
2022-08-19T15:14:21.863Z,7.35
2022-08-19T15:17:09.296Z,4.60
2022-08-19T15:19:57.103Z,6.17
2022-08-19T15:22:44.709Z,9.00
2022-08-19T15:25:33.259Z,5.95
2022-08-19T15:28:20.486Z,5.67
2022-08-19T15:31:08.440Z,5.05
2022-08-19T15:34:00.580Z,4.72
2022-08-19T15:36:47.829Z,4.22
2022-08-19T15:39:35.525Z,5.00
2022-08-19T15:42:30.052Z,4.12
2022-08-19T15:45:17.177Z,6.80
2022-08-19T15:48:06.000Z,5.55
2022-08-19T15:50:53.372Z,5.00
2022-08-19T15:53:42.431Z,6.45
2022-08-19T15:56:34.142Z,5.00
2022-08-19T15:59:40.835Z,6.40
2022-08-19T16:02:47.396Z,6.70
2022-08-19T16:05:52.961Z,6.35
2022-08-19T16:08:49.271Z,6.10
2022-08-19T16:11:39.435Z,9.23
2022-08-19T16:14:23.277Z,5.83
2022-08-19T16:17:12.624Z,5.90
2022-08-19T16:19:59.797Z,5.95
2022-08-19T16:22:47.053Z,5.80
2022-08-19T16:25:34.690Z,7.40
2022-08-19T16:28:22.731Z,6.87
2022-08-19T16:31:10.388Z,6.40
2022-08-19T16:33:58.527Z,5.05
2022-08-19T16:36:46.067Z,7.03
2022-08-19T16:39:33.635Z,5.58
2022-08-19T16:42:20.709Z,5.95
2022-08-19T16:45:08.927Z,6.15
2022-08-19T16:47:58.106Z,6.42
2022-08-19T16:50:49.600Z,7.67
2022-08-19T16:53:36.070Z,6.70
2022-08-19T16:56:25.411Z,6.50
2022-08-19T16:59:13.690Z,4.30
2022-08-19T17:02:01.509Z,6.40
2022-08-19T17:04:57.077Z,5.67
2022-08-19T17:07:37.464Z,7.22
2022-08-19T17:10:24.826Z,6.47
2022-08-19T17:13:15.184Z,5.83
2022-08-19T17:16:02.311Z,8.68
2022-08-19T17:18:51.310Z,9.30
2022-08-19T17:21:40.575Z,7.40
2022-08-19T17:24:28.053Z,8.50
2022-08-19T17:27:15.779Z,6.17
2022-08-19T17:30:05.554Z,8.10
2022-08-19T17:32:52.849Z,6.83
2022-08-19T17:35:43.633Z,9.28
2022-08-19T17:38:31.371Z,7.95
2022-08-19T17:41:19.160Z,9.18
2022-08-19T17:44:06.978Z,6.92
2022-08-19T17:46:56.217Z,7.37
2022-08-19T17:49:43.504Z,7.97
2022-08-19T17:52:31.134Z,7.17
2022-08-19T17:55:19.480Z,7.85
2022-08-19T17:58:08.014Z,7.15
2022-08-19T18:00:58.423Z,9.10
2022-08-19T18:03:45.950Z,7.17
2022-08-19T18:06:35.415Z,9.60
2022-08-19T18:09:24.787Z,7.33
2022-08-19T18:12:15.860Z,12.45
2022-08-19T18:15:05.022Z,7.55
2022-08-19T18:17:52.841Z,8.13
2022-08-19T18:20:40.133Z,8.20
2022-08-19T18:23:45.369Z,6.95
2022-08-19T18:26:16.213Z,8.75
2022-08-19T18:29:03.591Z,8.55
2022-08-19T18:31:50.912Z,8.40
2022-08-19T18:34:38.157Z,10.30
2022-08-19T18:37:26.524Z,8.83
2022-08-19T18:40:35.405Z,12.05
2022-08-19T18:43:40.919Z,10.08
2022-08-19T18:46:46.589Z,8.43
2022-08-19T18:49:35.187Z,8.63
2022-08-19T18:52:26.366Z,10.82
2022-08-19T18:55:15.349Z,11.95
2022-08-19T18:58:02.632Z,9.13
2022-08-19T19:00:50.300Z,8.18
2022-08-19T19:03:41.015Z,9.48
2022-08-19T19:06:33.712Z,10.75
2022-08-19T19:09:23.529Z,10.40
2022-08-19T19:12:12.448Z,8.75
2022-08-19T19:15:00.010Z,6.85
2022-08-19T19:17:47.322Z,8.98
2022-08-19T19:20:35.278Z,8.98
2022-08-19T19:23:24.535Z,9.08
2022-08-19T19:26:13.620Z,10.50
2022-08-19T19:29:01.283Z,10.25
2022-08-19T19:31:50.401Z,10.13
2022-08-19T19:34:41.696Z,10.75
2022-08-19T19:37:29.336Z,13.28
2022-08-19T19:40:16.958Z,8.23
2022-08-19T19:43:05.678Z,9.43
2022-08-19T19:45:53.654Z,8.65
2022-08-19T19:48:41.762Z,11.30
2022-08-19T19:51:30.013Z,12.70
2022-08-19T19:54:23.349Z,14.65
2022-08-19T19:57:07.935Z,12.68
2022-08-19T19:59:55.916Z,13.13
2022-08-19T20:02:50.093Z,7.53
2022-08-19T20:05:36.168Z,9.73
2022-08-19T20:08:41.482Z,10.85
2022-08-19T20:11:32.831Z,10.28
2022-08-19T20:14:23.403Z,15.18
2022-08-19T20:17:11.560Z,10.32
2022-08-19T20:19:59.175Z,10.58
2022-08-19T20:22:47.597Z,11.90
2022-08-19T20:25:35.169Z,11.35
2022-08-19T20:28:22.705Z,12.40
2022-08-19T20:31:11.316Z,10.43
2022-08-19T20:33:59.162Z,13.72
2022-08-19T20:36:46.758Z,8.05
2022-08-19T20:39:34.307Z,11.40
2022-08-19T20:42:21.926Z,9.95
2022-08-19T20:45:22.621Z,11.28
2022-08-19T20:48:02.192Z,9.78
2022-08-19T20:50:50.076Z,10.55
2022-08-19T20:53:37.875Z,10.13
2022-08-19T20:56:25.531Z,11.03
2022-08-19T20:59:12.946Z,10.28
2022-08-19T21:02:00.225Z,12.85
2022-08-19T21:04:48.901Z,10.30
2022-08-19T21:07:39.652Z,10.40
2022-08-19T21:10:28.365Z,8.50
2022-08-19T21:13:16.844Z,11.43
2022-08-19T21:16:05.268Z,7.22
2022-08-19T21:18:53.241Z,8.70
2022-08-19T21:21:40.656Z,8.98
2022-08-19T21:24:31.739Z,18.95
2022-08-19T21:27:17.013Z,10.78
2022-08-19T21:30:05.879Z,7.28
2022-08-19T21:32:54.331Z,6.87
2022-08-19T21:35:42.134Z,7.33
2022-08-19T21:38:29.683Z,9.10
2022-08-19T21:41:16.897Z,12.73
2022-08-19T21:44:04.376Z,11.28
2022-08-19T21:46:51.766Z,10.20
2022-08-19T21:49:39.062Z,10.10
2022-08-19T21:52:27.873Z,8.40
2022-08-19T21:55:17.199Z,6.45
2022-08-19T21:58:05.243Z,9.03
2022-08-19T22:00:52.831Z,8.33
2022-08-19T22:03:40.786Z,8.05
2022-08-19T22:06:28.469Z,8.18
2022-08-19T22:09:15.452Z,6.53
2022-08-19T22:12:03.027Z,8.05
2022-08-19T22:14:51.773Z,7.12
2022-08-19T22:17:40.014Z,7.20
2022-08-19T22:20:31.927Z,10.78
2022-08-19T22:23:19.027Z,7.15
2022-08-19T22:26:07.787Z,9.50
2022-08-19T22:28:55.007Z,7.08
2022-08-19T22:31:42.875Z,8.95
2022-08-19T22:34:30.001Z,6.75
2022-08-19T22:37:17.284Z,7.60
2022-08-19T22:40:05.863Z,5.95
2022-08-19T22:43:05.780Z,8.95
2022-08-19T22:45:55.409Z,5.53
2022-08-19T22:48:42.679Z,9.30
2022-08-19T22:51:48.535Z,8.38
2022-08-19T22:54:36.246Z,6.75
2022-08-19T22:57:23.734Z,7.10
2022-08-19T23:00:13.234Z,5.50
2022-08-19T23:03:02.081Z,6.08
2022-08-19T23:05:49.439Z,9.78
2022-08-19T23:08:39.729Z,13.20
2022-08-19T23:11:27.340Z,5.58
2022-08-19T23:14:16.786Z,7.10
2022-08-19T23:17:13.362Z,6.65
2022-08-19T23:20:00.936Z,8.30
2022-08-19T23:22:50.850Z,6.78
2022-08-19T23:25:38.778Z,7.55
2022-08-19T23:28:44.314Z,6.65
2022-08-19T23:31:31.628Z,6.97
2022-08-19T23:34:18.913Z,7.70
2022-08-19T23:37:07.395Z,6.40
2022-08-19T23:39:55.104Z,7.65
2022-08-19T23:42:45.673Z,7.20
2022-08-19T23:45:34.028Z,5.42
2022-08-19T23:48:21.309Z,5.67
2022-08-19T23:51:11.254Z,6.75
2022-08-19T23:53:58.746Z,10.23
2022-08-19T23:56:46.053Z,6.80
2022-08-19T23:59:33.689Z,7.87
